createdAt,value
2019-01-28T00:00:58.134Z,5.10
2019-01-28T00:03:27.127Z,5.00
2019-01-28T00:05:55.910Z,5.10
2019-01-28T00:08:24.883Z,5.10
2019-01-28T00:10:53.890Z,5.00
2019-01-28T00:13:22.661Z,5.00
2019-01-28T00:15:53.183Z,5.00
2019-01-28T00:18:22.020Z,5.10
2019-01-28T00:20:50.879Z,5.10
2019-01-28T00:23:19.913Z,5.00
2019-01-28T00:25:48.835Z,5.00
2019-01-28T00:28:17.666Z,5.00
2019-01-28T00:30:46.639Z,5.00
2019-01-28T00:33:15.527Z,5.10
2019-01-28T00:35:44.412Z,5.10
2019-01-28T00:38:13.375Z,5.00
2019-01-28T00:40:42.226Z,5.00
2019-01-28T00:43:10.999Z,5.00
2019-01-28T00:45:39.740Z,5.00
2019-01-28T00:48:08.600Z,4.90
2019-01-28T00:50:37.347Z,4.90
2019-01-28T00:53:06.240Z,4.80
2019-01-28T00:55:35.173Z,4.70
2019-01-28T00:58:04.099Z,4.70
2019-01-28T01:00:33.326Z,4.50
2019-01-28T01:03:02.358Z,4.40
2019-01-28T01:05:31.290Z,4.40
2019-01-28T01:08:00.186Z,4.30
2019-01-28T01:10:29.013Z,4.20
2019-01-28T01:12:57.807Z,4.20
2019-01-28T01:15:26.712Z,4.20
2019-01-28T01:17:55.525Z,4.10
2019-01-28T01:20:24.369Z,4.10
2019-01-28T01:22:53.103Z,4.10
2019-01-28T01:25:21.902Z,4.10
2019-01-28T01:27:50.753Z,4.10
2019-01-28T01:30:19.686Z,4.10
2019-01-28T01:32:48.507Z,4.10
2019-01-28T01:35:17.448Z,4.10
2019-01-28T01:37:46.473Z,4.10
2019-01-28T01:40:17.615Z,4.10
2019-01-28T01:42:46.419Z,4.20
2019-01-28T01:45:16.696Z,4.30
2019-01-28T01:47:45.535Z,4.30
2019-01-28T01:50:14.702Z,4.30
2019-01-28T01:52:43.710Z,4.40
2019-01-28T01:55:13.589Z,4.40
2019-01-28T01:57:42.718Z,4.40
2019-01-28T02:00:16.606Z,4.40
2019-01-28T02:02:45.586Z,4.40
2019-01-28T02:05:14.500Z,4.50
2019-01-28T02:07:43.432Z,4.50
2019-01-28T02:10:14.533Z,4.50
2019-01-28T02:12:43.456Z,4.60
2019-01-28T02:15:17.718Z,4.60
2019-01-28T02:17:46.819Z,4.50
2019-01-28T02:20:16.041Z,4.60
2019-01-28T02:22:44.879Z,4.60
2019-01-28T02:25:14.368Z,4.50
2019-01-28T02:27:43.332Z,4.50
2019-01-28T02:30:14.222Z,4.50
2019-01-28T02:32:43.079Z,4.50
2019-01-28T02:35:12.292Z,4.50
2019-01-28T02:37:41.235Z,4.50
2019-01-28T02:40:12.786Z,4.50
2019-01-28T02:42:41.592Z,4.50
2019-01-28T02:45:11.215Z,4.40
2019-01-28T02:47:40.104Z,4.40
2019-01-28T02:50:11.983Z,4.40
2019-01-28T02:52:40.769Z,4.50
2019-01-28T02:55:09.690Z,4.50
2019-01-28T02:57:38.467Z,4.50
2019-01-28T03:00:11.510Z,4.50
2019-01-28T03:02:40.279Z,4.50
2019-01-28T03:05:09.458Z,4.60
2019-01-28T03:07:38.250Z,4.60
2019-01-28T03:10:10.471Z,4.60
2019-01-28T03:12:39.344Z,4.60
2019-01-28T03:15:08.922Z,4.60
2019-01-28T03:17:37.765Z,4.70
2019-01-28T03:20:07.752Z,4.70
2019-01-28T03:22:36.967Z,4.70
2019-01-28T03:25:06.945Z,4.60
2019-01-28T03:27:35.782Z,4.60
2019-01-28T03:30:06.065Z,4.60
2019-01-28T03:32:34.888Z,4.70
2019-01-28T03:35:04.360Z,4.90
2019-01-28T03:37:33.111Z,4.90
2019-01-28T03:40:01.894Z,4.90
2019-01-28T03:42:30.724Z,4.90
2019-01-28T03:44:59.591Z,4.90
2019-01-28T03:47:28.333Z,4.90
2019-01-28T03:49:57.109Z,4.80
2019-01-28T03:52:26.285Z,4.80
2019-01-28T03:54:55.198Z,4.80
2019-01-28T03:57:24.078Z,4.80
2019-01-28T03:59:52.928Z,4.90
2019-01-28T04:02:21.885Z,4.90
2019-01-28T04:04:51.032Z,4.90
2019-01-28T04:07:20.035Z,4.90
2019-01-28T04:09:49.568Z,4.90
2019-01-28T04:12:18.669Z,4.90
2019-01-28T04:14:47.599Z,4.80
2019-01-28T04:17:16.555Z,4.90
2019-01-28T04:19:45.310Z,4.90
2019-01-28T04:22:14.226Z,4.80
2019-01-28T04:24:43.402Z,4.90
2019-01-28T04:27:12.197Z,4.90
2019-01-28T04:29:43.988Z,4.80
2019-01-28T04:32:12.838Z,4.90
2019-01-28T04:34:41.696Z,4.90
2019-01-28T04:37:10.454Z,4.90
2019-01-28T04:39:39.464Z,5.00
2019-01-28T04:42:08.270Z,5.00
2019-01-28T04:44:37.075Z,5.00
2019-01-28T04:47:06.172Z,5.00
2019-01-28T04:49:35.135Z,5.00
2019-01-28T04:52:04.053Z,5.00
2019-01-28T04:54:33.209Z,5.00
2019-01-28T04:57:01.981Z,5.10
2019-01-28T04:59:30.768Z,5.10
2019-01-28T05:01:59.604Z,5.00
2019-01-28T05:04:28.399Z,5.00
2019-01-28T05:06:57.463Z,5.10
2019-01-28T05:09:26.481Z,5.10
2019-01-28T05:11:55.428Z,5.10
2019-01-28T05:14:24.547Z,5.00
2019-01-28T05:16:53.487Z,5.00
2019-01-28T05:19:22.282Z,5.00
2019-01-28T05:21:51.343Z,5.10
2019-01-28T05:24:20.111Z,5.10
2019-01-28T05:26:48.920Z,5.10
2019-01-28T05:29:17.740Z,5.10
2019-01-28T05:31:46.591Z,5.00
2019-01-28T05:34:15.496Z,5.00
2019-01-28T05:36:44.383Z,5.00
2019-01-28T05:39:13.299Z,5.00
2019-01-28T05:41:42.431Z,5.10
2019-01-28T05:44:11.262Z,5.10
2019-01-28T05:46:40.155Z,5.10
2019-01-28T05:49:09.080Z,5.10
2019-01-28T05:51:37.953Z,5.10
2019-01-28T05:54:07.311Z,5.20
2019-01-28T05:56:36.231Z,5.20
2019-01-28T05:59:05.087Z,5.10
2019-01-28T06:01:33.966Z,5.20
2019-01-28T06:04:02.792Z,5.10
2019-01-28T06:06:31.605Z,5.10
2019-01-28T06:09:00.371Z,5.10
2019-01-28T06:11:29.251Z,5.00
2019-01-28T06:13:58.067Z,5.00
2019-01-28T06:16:26.897Z,4.90
2019-01-28T06:18:55.962Z,4.90
2019-01-28T06:21:24.959Z,4.90
2019-01-28T06:23:53.910Z,4.80
2019-01-28T06:26:22.875Z,4.80
2019-01-28T06:28:51.776Z,4.80
2019-01-28T06:31:20.640Z,4.80
2019-01-28T06:33:49.451Z,4.70
2019-01-28T06:36:18.302Z,4.80
2019-01-28T06:38:47.292Z,4.70
2019-01-28T06:41:16.161Z,4.70
2019-01-28T06:43:45.634Z,4.80
2019-01-28T06:46:14.447Z,4.80
2019-01-28T06:48:43.267Z,4.80
2019-01-28T06:51:12.060Z,4.90
2019-01-28T06:53:40.915Z,4.90
2019-01-28T06:56:09.794Z,4.90
2019-01-28T06:58:38.695Z,5.00
2019-01-28T07:01:07.723Z,5.00
2019-01-28T07:03:36.595Z,5.10
2019-01-28T07:06:05.640Z,5.10
2019-01-28T07:08:34.430Z,5.10
2019-01-28T07:11:03.316Z,5.10
2019-01-28T07:13:32.115Z,5.10
2019-01-28T07:16:02.855Z,5.10
2019-01-28T07:18:31.691Z,5.10
2019-01-28T07:21:00.480Z,5.00
2019-01-28T07:23:29.361Z,5.00
2019-01-28T07:25:58.256Z,5.10
2019-01-28T07:28:27.168Z,5.00
2019-01-28T07:30:55.954Z,5.00
2019-01-28T07:33:24.791Z,4.90
2019-01-28T07:35:53.578Z,4.90
2019-01-28T07:38:22.536Z,4.90
2019-01-28T07:40:51.716Z,4.90
2019-01-28T07:43:20.595Z,5.00
2019-01-28T07:45:49.571Z,5.00
2019-01-28T07:48:18.457Z,4.90
2019-01-28T07:50:47.466Z,4.90
2019-01-28T07:53:16.420Z,4.80
2019-01-28T07:55:45.420Z,4.80
2019-01-28T07:58:14.211Z,4.90
2019-01-28T08:00:43.201Z,4.80
2019-01-28T08:03:12.111Z,4.90
2019-01-28T08:05:41.161Z,4.90
2019-01-28T08:08:10.344Z,4.90
2019-01-28T08:10:39.351Z,4.90
2019-01-28T08:13:08.329Z,4.90
2019-01-28T08:15:37.275Z,4.90
2019-01-28T08:18:10.999Z,4.90
2019-01-28T08:20:37.000Z,4.80
2019-01-28T08:23:06.056Z,4.80
2019-01-28T08:25:34.987Z,4.90
2019-01-28T08:28:04.054Z,4.90
2019-01-28T08:30:35.032Z,4.90
2019-01-28T08:33:04.379Z,4.90
2019-01-28T08:35:35.152Z,4.90
2019-01-28T08:38:04.186Z,4.90
2019-01-28T08:40:33.169Z,4.90
2019-01-28T08:43:01.947Z,4.90
2019-01-28T08:45:30.906Z,4.90
2019-01-28T08:47:59.770Z,4.90
2019-01-28T08:50:28.871Z,4.80
2019-01-28T08:52:57.774Z,4.70
2019-01-28T08:55:27.113Z,4.70
2019-01-28T08:57:56.209Z,4.80
2019-01-28T09:00:30.720Z,4.80
2019-01-28T09:02:59.860Z,4.80
2019-01-28T09:05:29.583Z,4.80
2019-01-28T09:07:58.751Z,4.80
2019-01-28T09:10:27.835Z,4.80
2019-01-28T09:12:56.864Z,4.80
2019-01-28T09:15:26.502Z,4.80
2019-01-28T09:17:55.636Z,4.80
2019-01-28T09:20:24.901Z,4.80
2019-01-28T09:22:53.955Z,4.80
2019-01-28T09:25:22.977Z,4.80
2019-01-28T09:27:52.930Z,4.80
2019-01-28T09:30:29.669Z,4.80
2019-01-28T09:32:58.775Z,4.90
2019-01-28T09:35:27.935Z,5.00
2019-01-28T09:37:57.155Z,5.00
2019-01-28T09:40:27.329Z,5.00
2019-01-28T09:42:56.337Z,5.00
2019-01-28T09:45:30.163Z,5.10
2019-01-28T09:47:59.157Z,5.20
2019-01-28T09:50:28.662Z,5.20
2019-01-28T09:52:59.174Z,5.20
2019-01-28T09:55:28.229Z,5.30
2019-01-28T09:57:57.323Z,5.40
2019-01-28T10:00:29.805Z,5.40
2019-01-28T10:02:59.098Z,5.40
2019-01-28T10:05:28.229Z,5.50
2019-01-28T10:07:58.033Z,5.50
2019-01-28T10:10:27.322Z,5.50
2019-01-28T10:12:56.396Z,5.50
2019-01-28T10:15:28.903Z,5.40
2019-01-28T10:17:57.991Z,5.40
2019-01-28T10:20:30.522Z,5.50
2019-01-28T10:22:59.533Z,5.50
2019-01-28T10:25:28.504Z,5.50
2019-01-28T10:27:57.603Z,5.50
2019-01-28T10:30:28.961Z,5.50
2019-01-28T10:32:57.912Z,5.50
2019-01-28T10:35:28.319Z,5.50
2019-01-28T10:37:57.319Z,5.60
2019-01-28T10:40:28.492Z,5.50
2019-01-28T10:42:57.623Z,5.30
2019-01-28T10:45:26.804Z,5.40
2019-01-28T10:48:00.479Z,5.30
2019-01-28T10:50:27.291Z,5.30
2019-01-28T10:52:56.470Z,5.30
2019-01-28T10:55:25.716Z,5.30
2019-01-28T10:57:54.775Z,5.30
2019-01-28T11:00:26.041Z,5.40
2019-01-28T11:02:55.052Z,5.40
2019-01-28T11:05:24.390Z,5.50
2019-01-28T11:07:53.444Z,5.40
2019-01-28T11:10:22.801Z,5.50
2019-01-28T11:12:52.247Z,5.50
2019-01-28T11:15:23.653Z,5.60
2019-01-28T11:17:53.491Z,5.60
2019-01-28T11:20:22.915Z,5.70
2019-01-28T11:22:51.851Z,5.60
2019-01-28T11:25:23.019Z,5.70
2019-01-28T11:27:52.035Z,5.70
2019-01-28T11:30:24.725Z,5.80
2019-01-28T11:32:53.723Z,5.80
2019-01-28T11:35:22.697Z,5.80
2019-01-28T11:37:51.809Z,5.80
2019-01-28T11:40:20.938Z,5.80
2019-01-28T11:42:49.887Z,5.90
2019-01-28T11:45:25.103Z,5.90
2019-01-28T11:47:54.052Z,5.90
2019-01-28T11:50:22.986Z,6.00
2019-01-28T11:52:51.754Z,6.00
2019-01-28T11:55:20.692Z,6.10
2019-01-28T11:57:49.609Z,6.10
2019-01-28T12:00:52.154Z,6.00
2019-01-28T12:03:21.094Z,6.00
2019-01-28T12:05:50.072Z,6.10
2019-01-28T12:08:19.985Z,6.10
2019-01-28T12:10:49.113Z,6.20
2019-01-28T12:13:18.319Z,6.20
2019-01-28T12:15:47.246Z,6.30
2019-01-28T12:18:16.424Z,6.40
2019-01-28T12:20:53.031Z,6.30
2019-01-28T12:23:16.424Z,6.30
2019-01-28T12:25:45.210Z,6.40
2019-01-28T12:28:14.048Z,6.40
2019-01-28T12:30:43.119Z,6.40
2019-01-28T12:33:12.362Z,6.40
2019-01-28T12:35:41.363Z,6.30
2019-01-28T12:38:10.396Z,6.30
2019-01-28T12:40:39.408Z,6.30
2019-01-28T12:43:08.690Z,6.30
2019-01-28T12:45:37.772Z,6.30
2019-01-28T12:48:06.923Z,6.30
2019-01-28T12:50:36.169Z,6.40
2019-01-28T12:53:05.718Z,6.40
2019-01-28T12:55:35.503Z,6.40
2019-01-28T12:58:04.810Z,6.40
2019-01-28T13:00:38.639Z,6.40
2019-01-28T13:03:08.132Z,6.50
2019-01-28T13:05:37.460Z,6.50
2019-01-28T13:08:07.657Z,6.40
2019-01-28T13:10:36.905Z,6.40
2019-01-28T13:13:06.113Z,6.40
2019-01-28T13:15:35.199Z,6.40
2019-01-28T13:18:04.300Z,6.50
2019-01-28T13:20:33.163Z,6.50
2019-01-28T13:23:02.249Z,6.40
2019-01-28T13:25:31.242Z,6.30
2019-01-28T13:28:00.128Z,6.30
2019-01-28T13:30:32.770Z,6.40
2019-01-28T13:33:02.638Z,6.40
2019-01-28T13:35:31.663Z,6.30
2019-01-28T13:38:00.616Z,6.20
2019-01-28T13:40:37.136Z,6.20
2019-01-28T13:43:12.027Z,6.20
2019-01-28T13:45:44.879Z,6.20
2019-01-28T13:48:23.308Z,6.20
2019-01-28T13:50:58.602Z,6.20
2019-01-28T13:53:32.400Z,6.20
2019-01-28T13:56:15.078Z,6.30
2019-01-28T13:58:54.150Z,6.20
2019-01-28T14:01:44.611Z,6.10
2019-01-28T14:04:13.563Z,6.10
2019-01-28T14:06:42.446Z,6.10
2019-01-28T14:09:14.575Z,5.90
2019-01-28T14:11:43.594Z,5.80
2019-01-28T14:14:19.528Z,5.60
2019-01-28T14:17:44.489Z,5.50
2019-01-28T14:20:40.681Z,5.40
2019-01-28T14:23:18.637Z,5.20
2019-01-28T14:26:29.208Z,5.20
2019-01-28T14:29:39.964Z,5.10
2019-01-28T14:35:03.649Z,5.20
2019-01-28T14:38:08.709Z,5.20
2019-01-28T14:43:51.336Z,5.00
2019-01-28T14:46:48.175Z,4.90
2019-01-28T14:49:17.273Z,4.90
2019-01-28T14:52:31.593Z,4.90
2019-01-28T14:55:30.260Z,4.90
2019-01-28T14:58:41.506Z,4.80
2019-01-28T15:04:29.410Z,4.90
2019-01-28T15:07:12.711Z,4.90
2019-01-28T15:10:32.957Z,4.80
2019-01-28T15:13:21.473Z,4.70
2019-01-28T15:16:00.121Z,4.70
2019-01-28T15:19:18.703Z,4.70
2019-01-28T15:22:00.129Z,4.70
2019-01-28T15:25:01.719Z,4.70
2019-01-28T15:30:22.495Z,4.50
2019-01-28T15:33:13.618Z,4.50
2019-01-28T15:35:43.205Z,4.50
2019-01-28T15:38:12.369Z,4.50
2019-01-28T15:40:42.448Z,4.50
2019-01-28T15:43:11.375Z,4.50
2019-01-28T15:45:42.291Z,4.50
2019-01-28T15:48:17.063Z,4.40
2019-01-28T15:50:46.155Z,4.40
2019-01-28T15:53:15.531Z,4.40
2019-01-28T15:56:03.904Z,4.50
2019-01-28T15:58:38.510Z,4.50
2019-01-28T16:01:07.551Z,4.40
2019-01-28T16:03:36.539Z,4.30
2019-01-28T16:06:05.912Z,4.30
2019-01-28T16:08:35.224Z,4.40
2019-01-28T16:11:04.505Z,4.30
2019-01-28T16:13:33.479Z,4.30
2019-01-28T16:16:02.503Z,4.30
2019-01-28T16:18:34.443Z,4.20
2019-01-28T16:21:02.048Z,4.10
2019-01-28T16:23:30.917Z,4.10
2019-01-28T16:25:59.738Z,4.00
2019-01-28T16:28:28.620Z,4.10
2019-01-28T16:30:57.668Z,4.10
2019-01-28T16:33:26.800Z,4.20
2019-01-28T16:35:55.976Z,4.20
2019-01-28T16:38:25.062Z,4.20
2019-01-28T16:40:53.876Z,4.20
2019-01-28T16:43:22.918Z,4.20
2019-01-28T16:45:51.773Z,4.20
2019-01-28T16:48:20.543Z,4.20
2019-01-28T16:50:49.599Z,4.20
2019-01-28T16:53:18.707Z,4.10
2019-01-28T16:55:47.710Z,4.10
2019-01-28T16:58:38.661Z,4.10
2019-01-28T17:01:08.513Z,4.10
2019-01-28T17:03:37.600Z,4.00
2019-01-28T17:06:10.950Z,3.90
2019-01-28T17:08:40.244Z,3.90
2019-01-28T17:11:09.528Z,4.00
2019-01-28T17:13:40.194Z,3.90
2019-01-28T17:16:09.665Z,3.80
2019-01-28T17:18:39.549Z,3.70
2019-01-28T17:21:09.030Z,3.60
2019-01-28T17:23:57.561Z,3.40
2019-01-28T17:26:29.787Z,3.30
2019-01-28T17:28:58.996Z,3.20
2019-01-28T17:31:29.054Z,3.20
2019-01-28T17:33:59.045Z,3.10
2019-01-28T17:37:00.542Z,2.80
2019-01-28T17:40:17.678Z,2.70
2019-01-28T17:42:47.492Z,2.60
2019-01-28T17:45:25.484Z,2.60
2019-01-28T17:48:19.923Z,2.50
2019-01-28T17:50:49.304Z,2.40
2019-01-28T17:53:18.812Z,2.30
2019-01-28T17:55:51.819Z,2.20
2019-01-28T17:58:32.673Z,2.20
2019-01-28T18:01:13.712Z,2.20
2019-01-28T18:03:43.067Z,2.10
2019-01-28T18:06:13.207Z,2.20
2019-01-28T18:08:42.110Z,2.00
2019-01-28T18:11:11.702Z,1.90
2019-01-28T18:13:40.801Z,1.90
2019-01-28T18:16:09.788Z,1.80
2019-01-28T18:18:41.042Z,1.80
2019-01-28T18:21:32.800Z,1.70
2019-01-28T18:24:03.576Z,1.80
2019-01-28T18:27:04.206Z,1.80
2019-01-28T18:29:33.332Z,1.70
2019-01-28T18:32:03.504Z,1.80
2019-01-28T18:34:32.399Z,1.80
2019-01-28T18:37:01.698Z,1.70
2019-01-28T18:39:31.971Z,1.70
2019-01-28T18:42:00.888Z,1.70
2019-01-28T18:44:31.656Z,1.60
2019-01-28T18:47:00.580Z,1.60
2019-01-28T18:49:29.514Z,1.60
2019-01-28T18:51:58.521Z,1.60
2019-01-28T18:54:30.462Z,1.50
2019-01-28T18:56:59.427Z,1.50
2019-01-28T18:59:28.608Z,1.50
2019-01-28T19:02:01.664Z,1.40
2019-01-28T19:04:30.559Z,1.30
2019-01-28T19:07:34.844Z,1.20
2019-01-28T19:10:13.793Z,1.20
2019-01-28T19:13:01.800Z,1.10
2019-01-28T19:16:04.960Z,1.10
2019-01-28T19:18:42.939Z,1.00
2019-01-28T19:21:36.660Z,1.10
2019-01-28T19:24:08.288Z,1.00
2019-01-28T19:26:39.647Z,1.00
2019-01-28T19:29:10.025Z,1.00
2019-01-28T19:31:39.070Z,1.10
2019-01-28T19:34:08.306Z,1.00
2019-01-28T19:36:58.838Z,1.00
2019-01-28T19:39:27.984Z,1.00
2019-01-28T19:41:56.936Z,0.90
2019-01-28T19:44:28.152Z,0.90
2019-01-28T19:46:56.785Z,0.90
2019-01-28T19:49:31.816Z,0.90
2019-01-28T19:52:03.640Z,0.90
2019-01-28T19:54:32.532Z,0.90
2019-01-28T19:57:01.730Z,0.80
2019-01-28T19:59:30.645Z,0.90
2019-01-28T20:01:59.911Z,0.90
2019-01-28T20:04:29.008Z,0.90
2019-01-28T20:07:00.543Z,0.80
2019-01-28T20:09:29.475Z,0.80
2019-01-28T20:11:58.579Z,0.80
2019-01-28T20:14:27.604Z,0.80
2019-01-28T20:16:56.530Z,0.90
2019-01-28T20:19:25.468Z,0.90
2019-01-28T20:21:54.451Z,0.90
2019-01-28T20:24:23.348Z,0.80
2019-01-28T20:26:52.780Z,0.80
2019-01-28T20:29:21.759Z,0.80
2019-01-28T20:31:50.610Z,0.80
2019-01-28T20:34:19.620Z,0.80
2019-01-28T20:36:48.927Z,0.70
2019-01-28T20:39:17.720Z,0.80
2019-01-28T20:41:46.646Z,0.70
2019-01-28T20:44:15.533Z,0.60
2019-01-28T20:46:44.604Z,0.60
2019-01-28T20:49:13.771Z,0.60
2019-01-28T20:51:42.731Z,0.70
2019-01-28T20:54:11.842Z,0.70
2019-01-28T20:56:40.692Z,0.70
2019-01-28T20:59:09.779Z,0.70
2019-01-28T21:01:38.697Z,0.70
2019-01-28T21:04:07.710Z,0.70
2019-01-28T21:06:36.687Z,0.70
2019-01-28T21:09:08.601Z,0.60
2019-01-28T21:11:37.515Z,0.60
2019-01-28T21:14:06.637Z,0.60
2019-01-28T21:16:35.594Z,0.60
2019-01-28T21:19:04.718Z,0.60
2019-01-28T21:21:41.628Z,0.50
2019-01-28T21:24:04.795Z,0.40
2019-01-28T21:26:33.591Z,0.40
2019-01-28T21:29:02.621Z,0.40
2019-01-28T21:31:31.567Z,0.50
2019-01-28T21:34:00.539Z,0.30
2019-01-28T21:36:36.121Z,0.30
2019-01-28T21:39:12.976Z,0.30
2019-01-28T21:41:41.942Z,0.30
2019-01-28T21:44:12.853Z,0.30
2019-01-28T21:46:41.903Z,0.30
2019-01-28T21:49:10.859Z,0.30
2019-01-28T21:51:39.781Z,0.20
2019-01-28T21:54:09.662Z,0.10
2019-01-28T21:56:38.629Z,0.10
2019-01-28T21:59:07.470Z,0.10
2019-01-28T22:01:36.454Z,0.10
2019-01-28T22:04:05.661Z,0.10
2019-01-28T22:06:34.536Z,0.00
2019-01-28T22:09:03.500Z,0.00
2019-01-28T22:11:32.315Z,-0.10
2019-01-28T22:14:01.130Z,-0.10
2019-01-28T22:16:30.043Z,-0.10
2019-01-28T22:18:58.889Z,0.00
2019-01-28T22:21:27.699Z,-0.10
2019-01-28T22:23:56.611Z,-0.10
2019-01-28T22:26:25.436Z,-0.20
2019-01-28T22:28:54.328Z,-0.20
2019-01-28T22:31:23.884Z,-0.30
2019-01-28T22:33:53.071Z,-0.20
2019-01-28T22:36:21.984Z,-0.20
2019-01-28T22:38:50.995Z,-0.20
2019-01-28T22:41:19.988Z,-0.20
2019-01-28T22:43:49.081Z,-0.30
2019-01-28T22:46:18.018Z,-0.30
2019-01-28T22:48:47.089Z,-0.30
2019-01-28T22:51:15.991Z,-0.30
2019-01-28T22:53:44.852Z,-0.30
2019-01-28T22:56:14.570Z,-0.40
2019-01-28T22:58:43.472Z,-0.30
2019-01-28T23:01:30.378Z,-0.30
2019-01-28T23:03:59.431Z,-0.40
2019-01-28T23:06:28.390Z,-0.50
2019-01-28T23:08:57.288Z,-0.40
2019-01-28T23:11:26.749Z,-0.40
2019-01-28T23:13:55.591Z,-0.50
2019-01-28T23:16:24.670Z,-0.50
2019-01-28T23:18:53.459Z,-0.50
2019-01-28T23:21:22.364Z,-0.50
2019-01-28T23:23:51.234Z,-0.40
2019-01-28T23:26:20.120Z,-0.40
2019-01-28T23:28:48.947Z,-0.50
2019-01-28T23:31:17.842Z,-0.50
2019-01-28T23:33:47.024Z,-0.60
2019-01-28T23:36:15.954Z,-0.70
2019-01-28T23:38:44.840Z,-0.70
2019-01-28T23:41:13.863Z,-0.60
2019-01-28T23:43:42.762Z,-0.50
2019-01-28T23:46:11.703Z,-0.50
2019-01-28T23:48:40.641Z,-0.60
2019-01-28T23:51:09.543Z,-0.60
2019-01-28T23:53:38.343Z,-0.60
2019-01-28T23:56:07.296Z,-0.70
2019-01-28T23:58:36.289Z,-0.60
